Paris, Pennsylvania
Current Conditions -  °F | °C
As of 12:51 PM on Tuesday 21 Oct 2014 (Local Time) from KPIT Reporting Station
Drizzle Drizzle  
Wind Chill: 52°   Ceiling: 3000
Heat Index: 52°   Visibility: 10mi
Dew Point: 45°   Wind: 12mph
Humidity: 77%   Direction: 340°NNW
Pressure: 29.89"   Gusts: NA
Location:  40.398°N, 80.4369°W
Report Text: KPIT 211651Z 34010KT 10SM -DZ FEW016 BKN030 OVC044 11/07 A2989 RMK AO2 DZB50 SLP131 P0000 T01110072
Loading
Personal Weather Stations






























Interactive Weather Map
Tropical Storm Tracking
New forecast layout! Learn more

10-Day Weather Forecast

Advertisements
Track Severe Weather on mobile